Terminal Aerodrome Forecast
Issued by NWS

Home | Current Version | Previous Version | Text Only | Print | Product List | Glossary On
Versions: 1 2 3 4 5 6 7 8 9 10
000
FTAK31 PAJN 261100
TAFAJN
TAF
PAJN 261138Z 2612/2712 07008KT P6SM VCSH FEW010 BKN040 OVC060
     FM261700 10007KT 5SM -SHRA BCFG SCT015 OVC035
     FM270000 10005KT 6SM -SHRA BCFG SCT015 OVC030
     FM270900 VRB05KT P6SM BCFG BKN050=

USA.gov is the U.S. government's official web portal to all federal, state and local government web resources and services.